METAR Data
IDs: Format: Raw Decoded Include TAF

Data at: 1940 UTC 14 Dec 2018

KF44 141935Z AUTO 33012G19KT 280V350 10SM RA OVC011 07/05 A2990 RMK AO2 LTG DSNT NE
KF44 141915Z AUTO 32013G19KT 10SM -RA OVC011 07/05 A2989 RMK AO2
KF44 141855Z AUTO 32006G18KT 10SM -DZ OVC011 07/05 A2990 RMK AO2
KF44 141835Z AUTO 33010G15KT 290V360 10SM OVC011 07/05 A2989 RMK AO2
KF44 141815Z AUTO 33007G15KT 10SM OVC011 07/05 A2990 RMK AO2
KF44 141755Z AUTO 33008G22KT 10SM OVC011 07/05 A2990 RMK AO2
KF44 141735Z AUTO 34009G15KT 10SM OVC011 07/05 A2991 RMK AO2 LTG DSNT NE
KF44 141715Z AUTO 34010G18KT 10SM OVC013 07/05 A2991 RMK AO2
KF44 141655Z AUTO 33011G15KT 10SM OVC013 07/05 A2990 RMK AO2
KF44 141635Z AUTO 32011G17KT 290V350 10SM OVC013 07/05 A2990 RMK AO2
KF44 141615Z AUTO 33011G17KT 10SM OVC011 07/05 A2989 RMK AO2
KF44 141555Z AUTO 33007G14KT 10SM OVC009 07/06 A2990 RMK AO2
KF44 141535Z AUTO 33007G16KT 10SM OVC009 07/06 A2990 RMK AO2
KF44 141515Z AUTO 34007G20KT 10SM OVC007 07/06 A2990 RMK AO2
KF44 141455Z AUTO 33005G17KT 7SM OVC007 07/06 A2988 RMK AO2 LTG DSNT NE AND E
KF44 141435Z AUTO 34010G19KT 4SM BR OVC007 07/06 A2987 RMK AO2 LTG DSNT NE
KF44 141415Z AUTO 33013G19KT 4SM BR OVC005 07/06 A2984 RMK AO2 LTG DSNT NE
KF44 141355Z AUTO 33010G26KT 2 1/2SM -RA OVC005 07/06 A2982 RMK AO2
KF44 141335Z AUTO 32010G14KT 4SM BR OVC005 07/06 A2982 RMK AO2 LTG DSNT NE
KF44 141315Z AUTO 33010G17KT 290V350 5SM BR OVC005 07/06 A2981 RMK AO2 LTG DSNT NE AND E
KF44 141255Z AUTO 32009G17KT 10SM VCTS OVC005 07/06 A2980 RMK AO2 LTG DSNT E
KF44 141235Z AUTO 32010G18KT 280V360 7SM OVC005 07/07 A2980 RMK AO2 LTG DSNT NE AND E
KF44 141215Z AUTO 33009G14KT 4SM BR OVC005 07/07 A2979 RMK AO2 LTG DSNT NE
KF44 141155Z AUTO 32007KT 3SM BR OVC005 07/07 A2978 RMK AO2 LTG DSNT NE
KF44 141135Z AUTO 32005KT 2 1/2SM BR OVC005 07/07 A2978 RMK AO2 LTG DSNT NE
KF44 141115Z AUTO 31004KT 2 1/2SM -DZ OVC005 07/07 A2977 RMK AO2 LTG DSNT NE
KF44 141055Z AUTO 31005KT 2 1/2SM -DZ OVC005 07/07 A2978 RMK AO2 LTG DSNT NE AND E
KF44 141035Z AUTO 32005KT 2 1/2SM BR OVC005 07/07 A2978 RMK AO2 LTG DSNT NE AND E
KF44 141015Z AUTO 00000KT 3SM BR OVC005 07/07 A2978 RMK AO2 LTG DSNT NE AND E
KF44 140955Z AUTO 33003KT 4SM BR BKN007 OVC011 08/07 A2978 RMK AO2
KF44 140935Z AUTO 33004KT 5SM BR OVC007 08/07 A2978 RMK AO2
KF44 140915Z AUTO 32003KT 10SM OVC009 08/07 A2978 RMK AO2 LTG DSNT E
KF44 140855Z AUTO 33004KT 5SM VCTS BR OVC005 08/07 A2977 RMK AO2 LTG DSNT NE AND E
KF44 140835Z AUTO 00000KT 5SM BR OVC007 08/07 A2978 RMK AO2
KF44 140810Z AUTO 35003KT 10SM OVC007 08/07 A2977 RMK AO2 LTG DSNT E
KF44 140755Z AUTO 36005KT 10SM OVC007 08/07 A2976 RMK AO2 LTG DSNT NE
KF44 140735Z AUTO 34003KT 10SM OVC007 08/07 A2976 RMK AO2
KF44 140715Z AUTO 36005KT 10SM OVC007 08/07 A2976 RMK AO2
KF44 140655Z AUTO 33003KT 10SM OVC005 08/07 A2976 RMK AO2
KF44 140635Z AUTO 00000KT 10SM OVC005 08/07 A2975 RMK AO2
KF44 140615Z AUTO 31004KT 10SM OVC007 08/07 A2975 RMK AO2
KF44 140555Z AUTO 31004KT 10SM OVC009 08/06 A2975 RMK AO2
KF44 140535Z AUTO 00000KT 10SM OVC011 08/07 A2976 RMK AO2
KF44 140515Z AUTO 00000KT 10SM OVC011 08/07 A2975 RMK AO2
KF44 140455Z AUTO 00000KT 10SM BKN013 08/07 A2975 RMK AO2
KF44 140435Z AUTO 00000KT 10SM CLR 08/07 A2975 RMK AO2
KF44 140415Z AUTO 00000KT 10SM CLR 08/07 A2974 RMK AO2
KF44 140355Z AUTO 34004KT 10SM SCT019 09/07 A2974 RMK AO2
KF44 140335Z AUTO 31003KT 10SM OVC019 10/07 A2974 RMK AO2
KF44 140315Z AUTO 00000KT 10SM OVC014 10/07 A2974 RMK AO2
KF44 140255Z AUTO 00000KT 10SM OVC016 10/07 A2974 RMK AO2
KF44 140235Z AUTO 00000KT 10SM SCT014 10/07 A2974 RMK AO2
KF44 140215Z AUTO 27003KT 10SM CLR 10/07 A2974 RMK AO2
KF44 140155Z AUTO 28003KT 10SM CLR 11/06 A2973 RMK AO2
KF44 140135Z AUTO 26004KT 10SM CLR 11/06 A2973 RMK AO2
KF44 140120Z AUTO 00000KT 10SM CLR 11/06 A2973 RMK AO2
KF44 140055Z AUTO 27006KT 10SM CLR 12/06 A2972 RMK AO2 LTG DSNT W
KF44 140035Z AUTO 28007KT 10SM CLR 13/07 A2972 RMK AO2
KF44 140015Z AUTO 26003KT 10SM CLR 13/06 A2971 RMK AO2 LTG DSNT N
KF44 132355Z AUTO 00000KT 10SM CLR 14/07 A2969 RMK AO2 LTG DSNT N AND NE
KF44 132335Z AUTO 00000KT 10SM SCT100 15/07 A2969 RMK AO2 LTG DSNT NE AND E
KF44 132315Z AUTO 25006KT 10SM SCT045 SCT075 BKN100 16/09 A2968 RMK AO2 LTG DSNT N
KF44 132255Z AUTO 24004KT 10SM SCT100 BKN120 16/11 A2968 RMK AO2
KF44 132235Z AUTO 26005G15KT 220V280 10SM SCT090 SCT120 16/11 A2967 RMK AO2
KF44 132215Z AUTO 24004KT 10SM SCT011 BKN039 OVC090 17/14 A2966 RMK AO2 LTG DSNT NW THRU NE
KF44 132155Z AUTO 00000KT 5SM BR SCT006 BKN016 OVC039 16/16 A2965 RMK AO2 LTG DSNT NW P0005
KF44 132135Z AUTO 00000KT 7SM VCTS SCT005 BKN016 OVC022 16/16 A2964 RMK AO2 LTG DSNT N AND NW
KF44 132115Z AUTO 14005KT 10SM SCT005 OVC019 16/16 A2964 RMK AO2 LTG DSNT NW THRU E
KF44 132055Z AUTO 15007KT 10SM BKN007 BKN023 OVC050 16/16 A2963 RMK AO2 LTG DSNT ALQS P0001
KF44 132035Z AUTO 12006KT 7SM -RA OVC007 16/15 A2963 RMK AO2 LTG DSNT SE S AND NW P0001
KF44 132015Z AUTO 14005KT 10SM OVC007 16/15 A2964 RMK AO2 LTG DSNT S AND NW
KF44 131955Z AUTO 14006KT 10SM OVC005 16/15 A2963 RMK AO2 LTG DSNT W THRU N P0001
KF44 131935Z AUTO 13006KT 10SM OVC005 16/15 A2964 RMK AO2 LTG DSNT NW P0001
KF44 131915Z AUTO 12005KT 7SM -RA OVC005 16/15 A2965 RMK AO2 LTG DSNT W AND NW P0001
KF44 131855Z AUTO 14007KT 7SM RA OVC007 16/15 A2966 RMK AO2 LTG DSNT N
KF44 131835Z AUTO 14005KT 10SM -DZ OVC009 16/15 A2966 RMK AO2
KF44 131815Z AUTO 13010G14KT 10SM OVC009 16/15 A2967 RMK AO2 LTG DSNT N
KF44 131755Z AUTO 13009G14KT 10SM OVC009 16/15 A2968 RMK AO2
KF44 131735Z AUTO 14009KT 10SM OVC009 16/15 A2969 RMK AO2
KF44 131715Z AUTO 13009KT 10SM OVC009 16/14 A2970 RMK AO2
KF44 131655Z AUTO 14008G14KT 10SM OVC009 16/14 A2971 RMK AO2 LTG DSNT N
KF44 131635Z AUTO 13008G15KT 10SM OVC009 16/15 A2971 RMK AO2
KF44 131615Z AUTO 14008KT 10SM OVC009 16/14 A2973 RMK AO2
KF44 131555Z AUTO 14007G14KT 10SM OVC009 16/14 A2973 RMK AO2
KF44 131535Z AUTO 14008KT 10SM OVC009 16/14 A2974 RMK AO2
KF44 131515Z AUTO 15008KT 10SM OVC009 16/14 A2974 RMK AO2 LTG DSNT N
KF44 131455Z AUTO 13008KT 10SM OVC009 16/14 A2973 RMK AO2
KF44 131435Z AUTO 13008G14KT 10SM OVC011 16/14 A2973 RMK AO2
KF44 131415Z AUTO 15009KT 10SM BKN013 OVC021 16/14 A2973 RMK AO2
KF44 131355Z AUTO 15007KT 10SM OVC019 16/14 A2973 RMK AO2 LTG DSNT NE
KF44 131335Z AUTO 14005KT 10SM OVC017 16/15 A2973 RMK AO2 LTG DSNT N
KF44 131315Z AUTO 15006KT 10SM -RA SCT014 BKN019 OVC026 16/15 A2973 RMK AO2 LTG DSNT N AND NE
KF44 131255Z AUTO 15006KT 10SM BKN014 BKN022 OVC026 16/15 A2973 RMK AO2 LTG DSNT NE AND E
KF44 131235Z AUTO 15006KT 10SM BKN014 OVC024 16/14 A2972 RMK AO2 LTG DSNT NE AND E
KF44 131215Z AUTO 16009KT 10SM BKN012 BKN024 OVC034 17/15 A2971 RMK AO2
KF44 131155Z AUTO 18008KT 10SM OVC012 17/15 A2971 RMK AO2 LTG DSNT NE AND E
KF44 131135Z AUTO 17010KT 10SM BKN014 OVC021 17/15 A2971 RMK AO2 LTG DSNT NE AND E
KF44 131115Z AUTO 16009G15KT 10SM VCTS BKN016 OVC024 17/14 A2970 RMK AO2 LTG DSNT N THRU SE
KF44 131055Z AUTO 16008KT 10SM BKN018 OVC024 16/14 A2971 RMK AO2 LTG DSNT ALQS
KF44 131035Z AUTO 16009KT 10SM OVC016 16/14 A2971 RMK AO2 LTG DSNT ALQS
KF44 131015Z AUTO 16008KT 10SM VCTS OVC016 16/14 A2971 RMK AO2 LTG DSNT N THRU S
KF44 130955Z AUTO 15007KT 10SM OVC016 16/14 A2971 RMK AO2 LTG DSNT N AND NE
KF44 130935Z AUTO 14007KT 10SM OVC018 16/14 A2973 RMK AO2 LTG DSNT N NE AND S
KF44 130915Z AUTO 16005KT 10SM TS BKN014 OVC019 16/14 A2976 RMK AO2 LTG DSNT ALQS
KF44 130855Z AUTO 18005KT 10SM VCTS OVC014 16/14 A2977 RMK AO2 LTG DSNT N NE AND S
KF44 130835Z AUTO 18006KT 10SM -RA OVC016 16/14 A2979 RMK AO2
KF44 130815Z AUTO 17006KT 10SM OVC016 16/14 A2980 RMK AO2 LTG DSNT S THRU NW
KF44 130755Z AUTO 18006KT 10SM RA OVC018 16/14 A2981 RMK AO2